Time;durP1;ratioP1;P1;durP2;ratioP2;P2;SDS_P1;SDS_P2;PMS_P1;PMS_P2;Temp;Humidity;BMP_temperature;BMP_pressure;BME280_temperature;BME280_humidity;BME280_pressure;Samples;Min_cycle;Max_cycle;Signal;HPM_P1;HPM_P2
2022/04/13 00:00:05;;;;;;;13.17;7.47;;;;;;;5.15;nan;98811.50;4974387;28;20125;-60
2022/04/13 00:02:30;;;;;;;12.27;7.20;;;;;;;5.04;nan;98808.91;4973193;28;20030;-60
2022/04/13 00:04:56;;;;;;;12.70;8.40;;;;;;;4.96;nan;98808.03;4969662;28;20035;-60
2022/04/13 00:07:22;;;;;;;11.23;7.83;;;;;;;4.92;nan;98802.91;4972430;28;20125;-59
2022/04/13 00:09:48;;;;;;;11.97;7.40;;;;;;;4.87;nan;98795.25;4973062;28;20358;-60
2022/04/13 00:12:13;;;;;;;13.00;8.57;;;;;;;4.87;nan;98796.94;4971820;28;20080;-61
2022/04/13 00:14:38;;;;;;;11.93;7.90;;;;;;;4.88;nan;98796.94;4970380;28;20041;-60
2022/04/13 00:17:04;;;;;;;16.33;8.70;;;;;;;4.86;nan;98797.78;4974098;28;20504;-61
2022/04/13 00:19:29;;;;;;;11.20;7.13;;;;;;;4.82;nan;98801.16;4972732;28;20039;-60
2022/04/13 00:21:56;;;;;;;13.83;8.40;;;;;;;4.78;nan;98799.44;4971044;28;20029;-60
2022/04/13 00:24:21;;;;;;;12.40;7.67;;;;;;;4.65;nan;98780.72;4969882;28;20050;-60
2022/04/13 00:26:47;;;;;;;11.27;7.17;;;;;;;4.72;nan;98802.75;4973338;28;20061;-61
2022/04/13 00:29:12;;;;;;;13.13;7.97;;;;;;;4.67;nan;98795.97;4972677;28;20034;-60
2022/04/13 00:31:38;;;;;;;11.10;7.33;;;;;;;4.51;nan;98779.75;4968938;28;20322;-61
2022/04/13 00:34:03;;;;;;;13.73;6.97;;;;;;;4.51;nan;98778.06;4969473;28;20194;-61
2022/04/13 00:36:28;;;;;;;14.93;8.57;;;;;;;4.56;nan;98798.41;4972957;28;20111;-61
2022/04/13 00:38:54;;;;;;;18.93;11.97;;;;;;;4.55;nan;98801.78;4972717;28;20042;-60
2022/04/13 00:41:21;;;;;;;16.20;9.10;;;;;;;4.53;nan;98783.19;4970127;28;20093;-59
2022/04/13 00:44:04;;;;;;;11.77;8.57;;;;;;;4.56;nan;98794.19;4970324;28;20035;-60
2022/04/13 00:46:30;;;;;;;15.57;9.67;;;;;;;4.67;nan;98796.78;4973507;28;20096;-59
2022/04/13 00:48:56;;;;;;;13.83;8.67;;;;;;;4.58;nan;98791.69;4971616;28;20117;-59
2022/04/13 00:51:21;;;;;;;11.83;8.33;;;;;;;4.65;nan;98792.56;4968293;28;20037;-60
2022/04/13 00:53:50;;;;;;;12.70;7.57;;;;;;;4.55;nan;98787.41;4971246;28;20436;-60
2022/04/13 00:56:20;;;;;;;11.87;7.80;;;;;;;4.44;nan;98783.09;4973728;28;20081;-60
2022/04/13 00:58:49;;;;;;;13.70;8.10;;;;;;;4.29;nan;98775.34;4970985;28;20149;-60
2022/04/13 01:01:15;;;;;;;13.37;7.93;;;;;;;4.31;nan;98783.84;4969829;28;20030;-62
2022/04/13 01:03:43;;;;;;;14.67;8.87;;;;;;;4.28;nan;98792.28;4972041;28;20460;-60
2022/04/13 01:06:10;;;;;;;15.37;8.40;;;;;;;4.28;nan;98783.81;4971359;28;20488;-61
2022/04/13 01:08:38;;;;;;;13.57;8.47;;;;;;;4.24;nan;98788.03;4970132;28;20030;-60
2022/04/13 01:11:04;;;;;;;16.50;7.63;;;;;;;4.13;nan;98775.22;4970012;28;20037;-61
2022/04/13 01:13:29;;;;;;;13.53;7.80;;;;;;;4.17;nan;98775.25;4972221;28;20456;-61
2022/04/13 01:15:55;;;;;;;13.53;8.17;;;;;;;4.36;nan;98789.81;4972352;28;20113;-61
2022/04/13 01:18:20;;;;;;;11.97;7.83;;;;;;;4.27;nan;98782.13;4970075;28;20132;-61
2022/04/13 01:20:52;;;;;;;11.50;7.67;;;;;;;4.28;nan;98781.28;4968637;28;20142;-60
2022/04/13 01:23:19;;;;;;;9.63;7.10;;;;;;;4.14;nan;98768.47;4972388;28;20050;-60
2022/04/13 01:25:49;;;;;;;13.60;7.47;;;;;;;4.16;nan;98776.94;4970550;28;20034;-60
2022/04/13 01:28:16;;;;;;;13.37;8.40;;;;;;;4.18;nan;98776.97;4969863;28;20418;-60
2022/04/13 01:30:41;;;;;;;10.93;8.63;;;;;;;4.17;nan;98775.25;4969543;28;20174;-61
2022/04/13 01:33:07;;;;;;;14.37;8.80;;;;;;;4.05;nan;98766.72;4973039;28;20595;-60
2022/04/13 01:35:32;;;;;;;15.93;7.97;;;;;;;4.11;nan;98789.59;4971367;28;20515;-61
2022/04/13 01:37:58;;;;;;;13.40;8.37;;;;;;;4.02;nan;98783.59;4969093;28;20033;-60
2022/04/13 01:40:23;;;;;;;15.00;7.93;;;;;;;4.05;nan;98789.53;4969586;28;20388;-61
2022/04/13 01:42:49;;;;;;;15.13;8.20;;;;;;;3.97;nan;98781.00;4972647;28;20045;-61
2022/04/13 01:45:19;;;;;;;11.80;7.50;;;;;;;3.99;nan;98783.53;4970244;28;20567;-60
2022/04/13 01:47:49;;;;;;;12.70;8.23;;;;;;;3.87;nan;98765.69;4969418;28;20032;-61
2022/04/13 01:50:18;;;;;;;10.97;7.53;;;;;;;3.94;nan;98791.13;4970596;28;20027;-61
2022/04/13 01:52:45;;;;;;;11.00;7.53;;;;;;;3.91;nan;98796.16;4972822;28;20061;-60
2022/04/13 01:55:10;;;;;;;12.73;7.07;;;;;;;3.86;nan;98782.56;4970483;28;20039;-60
2022/04/13 01:57:40;;;;;;;12.93;8.77;;;;;;;3.80;nan;98774.06;4968930;28;20105;-60
2022/04/13 02:00:09;;;;;;;9.87;7.00;;;;;;;3.77;nan;98776.59;4970569;28;20042;-61
2022/04/13 02:02:35;;;;;;;13.90;8.10;;;;;;;3.73;nan;98780.78;4971996;28;20063;-60
2022/04/13 02:05:01;;;;;;;16.40;9.33;;;;;;;3.75;nan;98778.22;4970014;28;20034;-60
2022/04/13 02:07:27;;;;;;;15.97;8.73;;;;;;;3.69;nan;98781.59;4968382;28;20029;-60
2022/04/13 02:09:53;;;;;;;15.10;8.03;;;;;;;3.80;nan;98794.34;4972510;28;20827;-60
2022/04/13 02:12:18;;;;;;;12.03;7.97;;;;;;;3.77;nan;98800.25;4972669;28;20033;-62
2022/04/13 02:14:44;;;;;;;12.90;8.43;;;;;;;3.80;nan;98810.41;4968124;28;20035;-60
2022/04/13 02:17:14;;;;;;;13.77;8.00;;;;;;;3.62;nan;98777.25;4968920;28;20058;-61
2022/04/13 02:19:43;;;;;;;13.43;8.17;;;;;;;3.77;nan;98805.31;4974927;28;20035;-60
2022/04/13 02:22:09;;;;;;;11.63;7.40;;;;;;;3.63;nan;98804.31;4976567;28;20951;-61
2022/04/13 02:24:35;;;;;;;14.77;8.10;;;;;;;3.67;nan;98811.13;4971531;28;20055;-60
2022/04/13 02:27:01;;;;;;;13.90;8.63;;;;;;;3.61;nan;98800.91;4974195;28;20038;-61
2022/04/13 02:29:27;;;;;;;13.33;8.57;;;;;;;3.59;nan;98802.59;4976087;28;20049;-62
2022/04/13 02:31:52;;;;;;;11.70;8.00;;;;;;;3.46;nan;98788.06;4974149;28;20026;-60
2022/04/13 02:34:18;;;;;;;11.33;8.40;;;;;;;3.54;nan;98807.59;4972803;28;20039;-60
2022/04/13 02:36:43;;;;;;;13.53;7.90;;;;;;;3.45;nan;98793.97;4973820;28;20109;-60
2022/04/13 02:39:09;;;;;;;11.30;7.47;;;;;;;3.57;nan;98809.31;4976445;28;20034;-60
2022/04/13 02:41:34;;;;;;;14.53;8.70;;;;;;;3.51;nan;98794.91;4974415;28;20022;-61
2022/04/13 02:43:59;;;;;;;9.43;7.57;;;;;;;3.56;nan;98810.16;4973459;28;20465;-60
2022/04/13 02:46:25;;;;;;;10.50;7.37;;;;;;;3.52;nan;98810.97;4972958;28;20041;-60
2022/04/13 02:48:50;;;;;;;11.47;8.60;;;;;;;3.50;nan;98810.94;4975937;28;20026;-61
2022/04/13 02:51:16;;;;;;;12.33;7.93;;;;;;;3.48;nan;98812.56;4974928;28;20145;-60
2022/04/13 02:53:41;;;;;;;12.17;7.50;;;;;;;3.37;nan;98796.41;4972975;28;20034;-60
2022/04/13 02:56:06;;;;;;;13.30;7.83;;;;;;;3.38;nan;98812.47;4972638;28;20384;-60
2022/04/13 02:58:32;;;;;;;12.33;8.50;;;;;;;3.28;nan;98798.81;4975661;28;20108;-60
2022/04/13 03:00:57;;;;;;;13.93;7.63;;;;;;;3.36;nan;98811.59;4974096;28;20397;-60
2022/04/13 03:03:23;;;;;;;13.50;8.87;;;;;;;3.41;nan;98795.59;4972077;28;20030;-60
2022/04/13 03:05:48;;;;;;;15.13;9.00;;;;;;;3.42;nan;98783.78;4974363;28;20030;-60
2022/04/13 03:08:14;;;;;;;14.10;8.03;;;;;;;3.47;nan;98804.97;4975219;28;20034;-60
2022/04/13 03:10:39;;;;;;;15.47;9.63;;;;;;;3.44;nan;98807.44;4971830;28;20167;-60
2022/04/13 03:13:05;;;;;;;14.03;9.17;;;;;;;3.45;nan;98807.47;4971742;28;20034;-61
2022/04/13 03:15:30;;;;;;;19.57;10.10;;;;;;;3.38;nan;98794.72;4973908;28;20043;-60
2022/04/13 03:17:56;;;;;;;14.33;8.70;;;;;;;3.72;nan;98813.72;4975398;28;20177;-60
2022/04/13 03:20:21;;;;;;;14.20;8.57;;;;;;;3.69;nan;98792.53;4972347;28;20042;-61
2022/04/13 03:22:47;;;;;;;14.20;8.03;;;;;;;3.68;nan;98795.94;4971548;28;20110;-61
2022/04/13 03:25:12;;;;;;;18.53;9.50;;;;;;;3.79;nan;98802.78;4975243;28;20556;-62
2022/04/13 03:27:37;;;;;;;16.47;9.13;;;;;;;3.69;nan;98804.41;4974259;28;20030;-60
2022/04/13 03:30:04;;;;;;;12.50;7.40;;;;;;;3.60;nan;98796.69;4970100;28;20173;-60
2022/04/13 03:32:37;;;;;;;15.50;8.00;;;;;;;3.71;nan;98815.38;4971024;28;20035;-60
2022/04/13 03:35:03;;;;;;;14.37;8.00;;;;;;;3.56;nan;98803.41;4974446;28;20102;-60
2022/04/13 03:37:29;;;;;;;15.70;8.93;;;;;;;3.57;nan;98816.91;4972707;28;20034;-60
2022/04/13 03:39:54;;;;;;;12.73;8.70;;;;;;;3.46;nan;98811.72;4969753;28;20026;-61
2022/04/13 03:42:20;;;;;;;15.63;7.90;;;;;;;3.41;nan;98812.50;4971359;28;20030;-61
2022/04/13 03:44:45;;;;;;;19.17;9.20;;;;;;;3.43;nan;98834.50;4974339;28;20077;-60
2022/04/13 03:47:10;;;;;;;15.13;8.53;;;;;;;3.39;nan;98830.22;4973090;28;20030;-60
2022/04/13 03:49:36;;;;;;;13.93;8.37;;;;;;;3.44;nan;98835.31;4970709;28;20956;-60
2022/04/13 03:52:01;;;;;;;11.33;7.90;;;;;;;3.45;nan;98837.88;4971847;28;20168;-60
2022/04/13 03:54:27;;;;;;;13.20;8.10;;;;;;;3.33;nan;98824.22;4972994;28;20034;-60
2022/04/13 03:56:53;;;;;;;12.90;7.87;;;;;;;3.28;nan;98821.63;4972148;28;20035;-60
2022/04/13 03:59:20;;;;;;;14.33;8.30;;;;;;;3.41;nan;98843.75;4972103;28;20477;-60
2022/04/13 04:01:46;;;;;;;14.23;8.93;;;;;;;3.42;nan;98842.94;4972884;28;20026;-60
2022/04/13 04:04:12;;;;;;;15.03;7.83;;;;;;;3.37;nan;98838.63;4973630;28;20037;-60
2022/04/13 04:06:37;;;;;;;12.03;7.27;;;;;;;3.37;nan;98851.28;4971228;28;20031;-60
2022/04/13 04:09:03;;;;;;;12.60;7.13;;;;;;;3.32;nan;98851.22;4970048;28;20035;-61
2022/04/13 04:11:29;;;;;;;16.77;8.63;;;;;;;3.27;nan;98855.38;4972784;28;20057;-60
2022/04/13 04:13:55;;;;;;;12.57;7.43;;;;;;;3.15;nan;98842.56;4975148;28;20031;-60
2022/04/13 04:16:21;;;;;;;12.00;6.67;;;;;;;3.18;nan;98842.63;4971476;28;20034;-60
2022/04/13 04:18:48;;;;;;;12.30;7.83;;;;;;;3.23;nan;98851.97;4970185;28;20035;-60
2022/04/13 04:21:15;;;;;;;13.43;7.63;;;;;;;3.31;nan;98857.13;4972687;28;20057;-60
2022/04/13 04:23:41;;;;;;;12.93;8.43;;;;;;;3.27;nan;98852.84;4972712;28;20047;-60
2022/04/13 04:26:07;;;;;;;10.93;7.90;;;;;;;3.20;nan;98841.78;4970111;28;20093;-60
2022/04/13 04:28:32;;;;;;;14.60;7.10;;;;;;;3.31;nan;98856.31;4970476;28;20464;-60
2022/04/13 04:30:57;;;;;;;11.63;6.97;;;;;;;3.40;nan;98869.06;4973190;28;20073;-60
2022/04/13 04:33:24;;;;;;;12.70;6.97;;;;;;;3.38;nan;98856.41;4973145;28;20572;-60
2022/04/13 04:35:51;;;;;;;9.33;6.97;;;;;;;3.43;nan;98856.47;4970001;28;20126;-60
2022/04/13 04:38:17;;;;;;;10.43;6.97;;;;;;;3.52;nan;98867.53;4971081;28;20039;-60
2022/04/13 04:40:43;;;;;;;16.57;8.47;;;;;;;3.55;nan;98871.81;4972997;28;20045;-61
2022/04/13 04:43:08;;;;;;;13.20;7.73;;;;;;;3.53;nan;98864.19;4970778;28;20030;-61
2022/04/13 04:45:34;;;;;;;13.83;7.90;;;;;;;3.66;nan;98877.84;4970181;28;20792;-60
2022/04/13 04:48:04;;;;;;;10.93;7.30;;;;;;;3.77;nan;98872.94;4970826;28;20113;-59
2022/04/13 04:50:31;;;;;;;10.10;6.67;;;;;;;3.79;nan;98869.56;4973992;28;20373;-60
2022/04/13 04:52:56;;;;;;;17.20;7.37;;;;;;;3.92;nan;98888.31;4971546;28;20042;-60
2022/04/13 04:55:22;;;;;;;13.43;7.80;;;;;;;3.86;nan;98867.97;4968437;28;20615;-60
2022/04/13 04:57:49;;;;;;;11.43;6.90;;;;;;;3.90;nan;98873.09;4969664;28;20480;-60
2022/04/13 05:00:19;;;;;;;11.23;7.07;;;;;;;4.12;nan;98889.38;4972909;28;20051;-60
2022/04/13 05:02:49;;;;;;;12.70;8.00;;;;;;;4.23;nan;98892.88;4970813;28;20033;-60
2022/04/13 05:05:15;;;;;;;10.23;7.40;;;;;;;4.28;nan;98892.94;4970366;28;20031;-60
2022/04/13 05:07:41;;;;;;;9.40;7.83;;;;;;;4.45;nan;98892.28;4971971;28;20034;-60
2022/04/13 05:10:07;;;;;;;11.40;8.00;;;;;;;4.54;nan;98896.59;4972743;28;20042;-61
2022/04/13 05:12:44;;;;;;;11.17;7.57;;;;;;;4.69;nan;98893.31;4969234;28;20033;-61
2022/04/13 05:15:10;;;;;;;14.57;7.63;;;;;;;4.80;nan;98889.16;4970151;28;20062;-60
2022/04/13 05:17:37;;;;;;;10.07;7.53;;;;;;;4.93;nan;98893.50;4972576;28;20034;-61
2022/04/13 05:20:04;;;;;;;13.37;8.53;;;;;;;5.01;nan;98882.56;4972503;28;20057;-60
2022/04/13 05:22:29;;;;;;;63.30;27.67;;;;;;;5.14;nan;98891.13;4970284;28;20792;-61
2022/04/13 05:24:54;;;;;;;20.73;12.50;;;;;;;5.39;nan;98898.03;4969353;28;20054;-61
2022/04/13 05:27:20;;;;;;;19.40;12.43;;;;;;;5.47;nan;98896.41;4972476;28;20555;-61
2022/04/13 05:29:45;;;;;;;19.30;12.80;;;;;;;5.62;nan;98897.31;4971575;28;20077;-61
2022/04/13 05:32:12;;;;;;;24.80;18.07;;;;;;;5.76;nan;98888.06;4969074;28;20031;-60
2022/04/13 05:34:38;;;;;;;24.00;19.43;;;;;;;5.98;nan;98905.16;4969381;28;20034;-60
2022/04/13 05:37:03;;;;;;;23.13;16.00;;;;;;;6.07;nan;98897.53;4969757;28;20343;-60
2022/04/13 05:39:29;;;;;;;18.17;11.13;;;;;;;6.28;nan;98905.22;4973582;28;20452;-60
2022/04/13 05:41:54;;;;;;;14.37;9.23;;;;;;;6.48;nan;98918.03;4967347;28;20027;-60
2022/04/13 05:44:19;;;;;;;10.63;7.83;;;;;;;6.56;nan;98903.59;4970500;28;20038;-61
2022/04/13 05:46:45;;;;;;;11.43;8.07;;;;;;;6.80;nan;98913.81;4971438;28;20337;-60
2022/04/13 05:49:10;;;;;;;12.57;7.63;;;;;;;6.93;nan;98908.72;4972748;28;20042;-60
2022/04/13 05:51:36;;;;;;;11.40;8.23;;;;;;;7.10;nan;98904.44;4968957;28;20042;-61
2022/04/13 05:54:01;;;;;;;13.73;8.63;;;;;;;7.32;nan;98918.88;4981604;28;20532;-60
2022/04/13 05:56:27;;;;;;;12.20;8.10;;;;;;;7.50;nan;98918.00;4974796;28;20039;-60
2022/04/13 05:58:52;;;;;;;14.53;8.07;;;;;;;7.63;nan;98920.53;4975710;28;20090;-60
2022/04/13 06:01:17;;;;;;;12.47;8.80;;;;;;;7.74;nan;98905.16;4972304;28;20113;-61
2022/04/13 06:03:43;;;;;;;10.70;8.00;;;;;;;7.84;nan;98901.75;4975310;28;20030;-61
2022/04/13 06:06:08;;;;;;;13.30;9.20;;;;;;;8.03;nan;98915.25;4975605;28;20485;-60
2022/04/13 06:08:34;;;;;;;11.47;7.37;;;;;;;8.10;nan;98904.19;4974461;28;20054;-60
2022/04/13 06:10:59;;;;;;;9.97;7.83;;;;;;;8.31;nan;98913.47;4971594;28;20030;-61
2022/04/13 06:13:25;;;;;;;14.50;8.20;;;;;;;8.50;nan;98921.00;4975178;28;20037;-61
2022/04/13 06:15:50;;;;;;;14.60;7.87;;;;;;;8.66;nan;98914.94;4975478;28;20457;-60
2022/04/13 06:18:15;;;;;;;11.87;8.70;;;;;;;8.80;nan;98908.88;4973996;28;20034;-60
2022/04/13 06:20:41;;;;;;;15.10;8.57;;;;;;;8.93;nan;98908.78;4972217;28;20034;-60
2022/04/13 06:23:06;;;;;;;12.13;8.67;;;;;;;9.13;nan;98918.84;4974008;28;20050;-60
2022/04/13 06:25:32;;;;;;;13.33;8.00;;;;;;;9.30;nan;98911.00;4971925;28;20026;-61
2022/04/13 06:27:58;;;;;;;13.07;7.43;;;;;;;9.51;nan;98909.09;4973738;28;20076;-60
2022/04/13 06:30:23;;;;;;;9.77;7.00;;;;;;;9.56;nan;98898.81;4975247;28;20042;-61
2022/04/13 06:32:48;;;;;;;13.47;7.43;;;;;;;9.81;nan;98914.75;4973475;28;20034;-61
2022/04/13 06:35:16;;;;;;;11.27;6.77;;;;;;;9.90;nan;98900.13;4971749;28;20034;-62
2022/04/13 06:37:44;;;;;;;11.13;7.57;;;;;;;10.03;nan;98911.06;4981765;28;20027;-61
2022/04/13 06:40:10;;;;;;;11.87;7.70;;;;;;;10.16;nan;98915.19;4975421;28;20034;-61
2022/04/13 06:42:37;;;;;;;11.70;6.87;;;;;;;10.30;nan;98910.75;4974243;28;20031;-60
2022/04/13 06:45:04;;;;;;;12.77;7.20;;;;;;;10.38;nan;98926.88;4970550;28;20604;-62
2022/04/13 06:47:29;;;;;;;10.50;6.17;;;;;;;10.60;nan;98926.56;4974619;28;20027;-62
2022/04/13 06:49:55;;;;;;;10.13;7.10;;;;;;;10.74;nan;98922.06;4976453;28;20037;-61
2022/04/13 06:52:20;;;;;;;12.25;7.00;;;;;;;10.84;nan;98908.25;4972997;28;20032;-60
2022/04/13 06:54:46;;;;;;;10.70;6.67;;;;;;;11.01;nan;98913.97;4974507;28;20540;-61
2022/04/13 06:57:12;;;;;;;9.30;6.63;;;;;;;11.09;nan;98906.97;4983741;28;20027;-61
2022/04/13 06:59:38;;;;;;;9.38;6.80;;;;;;;11.33;nan;98903.16;4982875;28;20089;-61
2022/04/13 07:02:10;;;;;;;9.98;6.82;;;;;;;11.33;nan;98893.72;4980870;28;20142;-60
2022/04/13 07:04:36;;;;;;;12.05;6.90;;;;;;;11.46;nan;98902.03;4979255;28;20035;-61
2022/04/13 07:07:02;;;;;;;12.70;7.30;;;;;;;11.68;nan;98903.34;4984201;28;20062;-62
2022/04/13 07:09:28;;;;;;;9.63;6.82;;;;;;;11.81;nan;98904.00;4985686;28;20039;-61
2022/04/13 07:11:53;;;;;;;9.90;6.95;;;;;;;11.92;nan;98901.22;4984150;28;20068;-61
2022/04/13 07:14:20;;;;;;;10.30;6.85;;;;;;;12.05;nan;98906.06;4983270;28;20038;-62
2022/04/13 07:16:46;;;;;;;10.00;7.05;;;;;;;12.25;nan;98900.53;4983583;28;20039;-63
2022/04/13 07:19:12;;;;;;;15.23;7.63;;;;;;;12.23;nan;98894.56;4980098;28;20080;-61
2022/04/13 07:21:37;;;;;;;8.15;6.20;;;;;;;12.27;nan;98901.31;4977632;28;20495;-61
2022/04/13 07:24:03;;;;;;;8.63;6.65;;;;;;;12.51;nan;98902.53;4973159;28;20047;-62
2022/04/13 07:26:29;;;;;;;13.63;7.15;;;;;;;12.54;nan;98885.28;4974736;28;20042;-61
2022/04/13 07:28:55;;;;;;;10.90;6.88;;;;;;;12.79;nan;98894.13;4973496;28;20054;-59
2022/04/13 07:31:21;;;;;;;8.55;6.50;;;;;;;12.90;nan;98899.00;4970623;28;20035;-60
2022/04/13 07:33:46;;;;;;;14.63;8.95;;;;;;;13.12;nan;98905.34;4971442;28;20038;-60
2022/04/13 07:36:14;;;;;;;11.48;7.22;;;;;;;13.09;nan;98889.13;4971712;28;20031;-60
2022/04/13 07:38:40;;;;;;;9.63;6.35;;;;;;;13.27;nan;98893.84;4970306;28;20034;-60
2022/04/13 07:41:05;;;;;;;12.68;6.80;;;;;;;13.47;nan;98896.75;4969707;28;20440;-60
2022/04/13 07:43:31;;;;;;;10.80;6.88;;;;;;;13.50;nan;98883.78;4971543;28;20119;-60
2022/04/13 07:45:58;;;;;;;11.25;6.68;;;;;;;13.73;nan;98889.16;4971919;28;20587;-61
2022/04/13 07:48:24;;;;;;;9.05;6.60;;;;;;;13.83;nan;98889.75;4970288;28;20043;-61
2022/04/13 07:50:49;;;;;;;10.70;7.47;;;;;;;13.84;nan;98883.69;4969775;28;20039;-60
2022/04/13 07:53:15;;;;;;;8.25;5.72;;;;;;;14.02;nan;98892.66;4973807;28;20577;-61
2022/04/13 07:55:40;;;;;;;8.27;6.32;;;;;;;14.06;nan;98892.50;4972761;28;20035;-60
2022/04/13 07:58:06;;;;;;;8.95;6.72;;;;;;;14.30;nan;98905.59;4970385;28;20049;-60
2022/04/13 08:00:32;;;;;;;13.88;6.45;;;;;;;14.34;nan;98900.28;4970513;28;20089;-61
2022/04/13 08:02:57;;;;;;;9.68;6.47;;;;;;;14.32;nan;98899.50;4977685;28;20121;-61
2022/04/13 08:05:23;;;;;;;10.23;6.57;;;;;;;14.56;nan;98903.09;4980086;28;20034;-60
2022/04/13 08:07:48;;;;;;;12.65;5.85;;;;;;;14.64;nan;98903.69;4973769;28;20533;-61
2022/04/13 08:10:14;;;;;;;10.43;6.30;;;;;;;14.80;nan;98906.66;4973415;28;20491;-60
2022/04/13 08:12:40;;;;;;;9.43;6.20;;;;;;;14.89;nan;98914.97;4973409;28;20614;-60
2022/04/13 08:15:07;;;;;;;8.60;5.57;;;;;;;14.83;nan;98897.06;4972780;28;20038;-62
2022/04/13 08:17:32;;;;;;;12.15;5.65;;;;;;;15.09;nan;98919.47;4971852;28;20034;-61
2022/04/13 08:19:57;;;;;;;10.10;5.50;;;;;;;15.14;nan;98914.16;4972878;28;20027;-60
2022/04/13 08:22:27;;;;;;;9.80;5.00;;;;;;;15.13;nan;98922.81;4973353;28;20044;-60
2022/04/13 08:24:53;;;;;;;12.98;7.82;;;;;;;15.25;nan;98905.16;4971567;28;20058;-60
2022/04/13 08:27:19;;;;;;;7.68;5.07;;;;;;;15.37;nan;98904.75;4970060;28;20041;-60
2022/04/13 08:29:46;;;;;;;5.57;4.68;;;;;;;15.48;nan;98901.81;4971011;28;20512;-60
2022/04/13 08:32:12;;;;;;;10.32;5.80;;;;;;;15.60;nan;98903.16;4974633;28;20034;-60
2022/04/13 08:34:38;;;;;;;7.40;5.13;;;;;;;15.54;nan;98896.44;4971676;28;20595;-60
2022/04/13 08:37:03;;;;;;;10.73;5.72;;;;;;;15.70;nan;98902.75;4970213;28;20031;-60
2022/04/13 08:39:29;;;;;;;6.55;5.43;;;;;;;15.68;nan;98901.13;4972302;28;20026;-59
2022/04/13 08:42:02;;;;;;;8.32;4.85;;;;;;;15.95;nan;98905.34;4972983;28;20030;-60
2022/04/13 08:44:42;;;;;;;7.28;4.72;;;;;;;15.97;nan;98896.63;4971129;28;20089;-61
2022/04/13 08:47:12;;;;;;;7.68;4.95;;;;;;;16.25;nan;98898.19;4968216;28;20085;-60
2022/04/13 08:49:43;;;;;;;7.13;5.38;;;;;;;16.24;nan;98907.69;4971299;28;20125;-60
2022/04/13 08:52:10;;;;;;;7.95;6.03;;;;;;;16.32;nan;98905.66;4974505;28;20037;-61
2022/04/13 08:54:53;;;;;;;5.85;4.60;;;;;;;16.30;nan;98879.00;4970536;28;20576;-61
2022/04/13 08:57:21;;;;;;;7.60;5.63;;;;;;;16.41;nan;98901.88;4969804;28;20101;-61
2022/04/13 09:00:13;;;;;;;7.43;4.93;;;;;;;16.48;nan;98903.31;4972987;28;20062;-61
2022/04/13 09:02:48;;;;;;;7.22;4.57;;;;;;;16.50;nan;98911.88;4971536;28;20045;-61
2022/04/13 09:05:19;;;;;;;6.57;5.18;;;;;;;16.52;nan;98906.63;4969928;28;20459;-61
2022/04/13 09:07:53;;;;;;;8.23;5.18;;;;;;;16.56;nan;98896.09;4970961;28;20400;-61
2022/04/13 09:10:22;;;;;;;6.90;5.75;;;;;;;16.46;nan;98908.53;4972912;28;20037;-61
2022/04/13 09:12:50;;;;;;;8.35;5.47;;;;;;;16.72;nan;98909.34;4968990;28;20382;-61
2022/04/13 09:15:16;;;;;;;7.65;5.38;;;;;;;16.85;nan;98907.94;4969334;28;20059;-61
2022/04/13 09:17:42;;;;;;;8.23;5.95;;;;;;;16.90;nan;98916.38;4969201;28;20477;-61
2022/04/13 09:20:09;;;;;;;9.07;5.32;;;;;;;16.83;nan;98883.84;4969179;28;20370;-61
2022/04/13 09:22:36;;;;;;;12.82;6.88;;;;;;;16.95;nan;98892.88;4969751;28;20117;-61
2022/04/13 09:25:04;;;;;;;5.65;5.05;;;;;;;16.94;nan;98883.41;4970196;28;20505;-60
2022/04/13 09:27:31;;;;;;;7.30;6.10;;;;;;;17.20;nan;98886.63;4972942;28;20173;-60
2022/04/13 09:29:57;;;;;;;4.95;4.45;;;;;;;17.28;nan;98891.47;4971445;28;20523;-60
2022/04/13 09:32:23;;;;;;;7.88;5.93;;;;;;;17.25;nan;98889.88;4968962;28;20026;-60
2022/04/13 09:34:50;;;;;;;9.00;5.03;;;;;;;17.53;nan;98899.06;4969015;28;20030;-61
2022/04/13 09:37:16;;;;;;;7.93;6.30;;;;;;;17.38;nan;98885.00;4973641;28;20023;-60
2022/04/13 09:39:42;;;;;;;11.10;6.10;;;;;;;17.31;nan;98892.19;4972774;28;20070;-61
2022/04/13 09:42:07;;;;;;;8.70;5.38;;;;;;;17.44;nan;98889.09;4968481;28;20031;-61
2022/04/13 09:44:33;;;;;;;8.07;5.80;;;;;;;17.35;nan;98895.53;4969518;28;20461;-61
2022/04/13 09:47:06;;;;;;;8.68;5.97;;;;;;;17.60;nan;98895.34;4971557;28;20042;-60
2022/04/13 09:49:31;;;;;;;7.53;6.72;;;;;;;17.60;nan;98892.75;4970252;28;20026;-61
2022/04/13 09:51:56;;;;;;;8.23;5.75;;;;;;;17.57;nan;98882.47;4969103;28;20037;-61
2022/04/13 09:54:26;;;;;;;5.68;4.90;;;;;;;17.80;nan;98890.97;4969815;28;20137;-60
2022/04/13 09:56:52;;;;;;;8.02;5.55;;;;;;;17.75;nan;98882.56;4971370;28;20500;-61
2022/04/13 09:59:31;;;;;;;8.65;6.40;;;;;;;17.69;nan;98869.88;4969793;28;20484;-61
2022/04/13 10:01:58;;;;;;;7.93;5.63;;;;;;;17.80;nan;98874.56;4968357;28;20141;-60
2022/04/13 10:04:27;;;;;;;10.18;6.18;;;;;;;17.81;nan;98868.47;4971361;28;20042;-61
2022/04/13 10:06:53;;;;;;;6.47;5.25;;;;;;;17.90;nan;98877.59;4970497;28;20038;-61
2022/04/13 10:09:21;;;;;;;9.77;5.13;;;;;;;18.03;nan;98879.59;4970199;28;20451;-62
2022/04/13 10:12:03;;;;;;;8.93;5.82;;;;;;;17.99;nan;98885.78;4969905;28;20043;-61
2022/04/13 10:14:30;;;;;;;7.38;5.90;;;;;;;17.99;nan;98875.41;4972905;28;20465;-61
2022/04/13 10:17:06;;;;;;;7.00;6.13;;;;;;;17.88;nan;98864.69;4972777;28;20475;-61
2022/04/13 10:19:31;;;;;;;7.53;5.28;;;;;;;18.07;nan;98872.50;4971001;28;20030;-62
2022/04/13 10:21:57;;;;;;;6.60;4.82;;;;;;;18.12;nan;98873.13;4970174;28;20031;-61
2022/04/13 10:24:33;;;;;;;8.40;5.43;;;;;;;18.24;nan;98870.81;4971908;28;20137;-60
2022/04/13 10:27:17;;;;;;;7.40;5.15;;;;;;;18.29;nan;98865.38;4969684;28;20481;-61
2022/04/13 10:29:44;;;;;;;9.30;6.00;;;;;;;18.43;nan;98872.53;4967682;28;20039;-61
2022/04/13 10:32:11;;;;;;;6.88;5.70;;;;;;;18.39;nan;98868.41;4970419;28;20066;-61
2022/04/13 10:34:38;;;;;;;15.02;5.68;;;;;;;18.61;nan;98863.94;4971464;28;20035;-61
2022/04/13 10:37:04;;;;;;;7.70;5.80;;;;;;;18.47;nan;98853.31;4970841;28;20514;-60
2022/04/13 10:39:30;;;;;;;7.15;5.55;;;;;;;18.36;nan;98865.97;4970945;28;20393;-61
2022/04/13 10:41:56;;;;;;;8.00;5.80;;;;;;;18.40;nan;98844.97;4973336;28;20079;-61
2022/04/13 10:44:33;;;;;;;6.78;4.88;;;;;;;18.52;nan;98865.19;4975733;28;20160;-60
2022/04/13 10:47:03;;;;;;;6.32;5.72;;;;;;;18.60;nan;98857.03;4972781;28;20078;-61
2022/04/13 10:49:58;;;;;;;7.07;5.43;;;;;;;18.66;nan;98864.56;4970558;28;20593;-61
2022/04/13 10:52:50;;;;;;;9.30;4.88;;;;;;;18.54;nan;98841.78;4970852;28;20081;-62
2022/04/13 10:55:20;;;;;;;10.82;5.28;;;;;;;18.66;nan;98857.59;4974437;28;20174;-63
2022/04/13 10:57:57;;;;;;;6.70;4.95;;;;;;;18.73;nan;98852.09;4971454;28;20072;-64
2022/04/13 11:00:24;;;;;;;7.85;6.13;;;;;;;18.95;nan;98847.53;4973344;28;20042;-63
2022/04/13 11:02:54;;;;;;;5.82;5.32;;;;;;;19.00;nan;98843.81;4975390;28;20080;-62
2022/04/13 11:05:22;;;;;;;8.43;5.57;;;;;;;19.01;nan;98847.25;4972175;28;20471;-62
2022/04/13 11:07:54;;;;;;;7.13;5.90;;;;;;;18.80;nan;98809.34;4971170;28;20038;-61
2022/04/13 11:10:21;;;;;;;8.32;4.70;;;;;;;18.95;nan;98826.75;4974818;28;20038;-62
2022/04/13 11:12:47;;;;;;;6.60;4.82;;;;;;;19.02;nan;98831.56;4975684;28;20123;-62
2022/04/13 11:15:13;;;;;;;6.45;5.05;;;;;;;19.11;nan;98838.91;4973254;28;20027;-62
2022/04/13 11:17:43;;;;;;;7.53;5.00;;;;;;;19.19;nan;98833.31;4971755;28;20035;-66
2022/04/13 11:20:24;;;;;;;7.50;5.50;;;;;;;19.16;nan;98841.28;4974849;28;20034;-59
2022/04/13 11:23:08;;;;;;;5.85;5.25;;;;;;;19.12;nan;98850.16;4976061;28;20381;-62
2022/04/13 11:25:47;;;;;;;7.03;6.07;;;;;;;19.09;nan;98830.38;4971110;28;20435;-64
2022/04/13 11:28:29;;;;;;;5.40;4.85;;;;;;;19.20;nan;98839.34;4971719;28;20035;-65
2022/04/13 11:31:05;;;;;;;5.93;5.00;;;;;;;19.32;nan;98846.53;4976243;28;20027;-65
2022/04/13 11:33:51;;;;;;;6.32;4.60;;;;;;;19.46;nan;98844.13;4972325;28;20201;-65
2022/04/13 11:36:18;;;;;;;8.73;5.97;;;;;;;19.54;nan;98844.56;4971378;28;20038;-65
2022/04/13 11:38:52;;;;;;;10.57;5.93;;;;;;;19.65;nan;98849.22;4974326;28;20036;-65
2022/04/13 11:41:18;;;;;;;8.38;5.60;;;;;;;19.44;nan;98844.19;4973500;28;20161;-66
2022/04/13 11:43:44;;;;;;;7.18;5.50;;;;;;;19.56;nan;98834.94;4969719;28;20114;-65
2022/04/13 11:46:35;;;;;;;6.85;5.57;;;;;;;19.58;nan;98835.66;4970168;28;20030;-65
2022/04/13 11:49:01;;;;;;;8.43;6.65;;;;;;;19.66;nan;98838.72;4971979;28;20031;-65